createdAt,value
2022-11-18T00:00:15.434Z,11.23
2022-11-18T00:02:43.537Z,10.32
2022-11-18T00:05:11.547Z,9.57
2022-11-18T00:07:41.078Z,7.07
2022-11-18T00:10:09.900Z,10.68
2022-11-18T00:12:55.461Z,9.75
2022-11-18T00:15:27.582Z,12.23
2022-11-18T00:17:58.449Z,10.05
2022-11-18T00:20:26.474Z,10.77
2022-11-18T00:22:56.101Z,10.98
2022-11-18T00:25:24.216Z,9.45
2022-11-18T00:27:52.271Z,11.70
2022-11-18T00:30:20.410Z,8.77
2022-11-18T00:32:48.399Z,10.13
2022-11-18T00:35:16.819Z,10.73
2022-11-18T00:37:44.859Z,10.60
2022-11-18T00:40:14.951Z,9.82
2022-11-18T00:43:02.703Z,10.40
2022-11-18T00:45:31.014Z,11.15
2022-11-18T00:47:59.069Z,11.90
2022-11-18T00:50:27.185Z,12.48
2022-11-18T00:52:55.185Z,11.52
2022-11-18T00:55:24.577Z,13.57
2022-11-18T00:57:52.588Z,11.35
2022-11-18T01:00:20.829Z,11.23
2022-11-18T01:02:48.812Z,11.50
2022-11-18T01:05:16.941Z,12.55
2022-11-18T01:07:45.053Z,10.55
2022-11-18T01:10:13.426Z,13.05
2022-11-18T01:13:00.259Z,12.65
2022-11-18T01:15:28.325Z,14.60
2022-11-18T01:17:56.635Z,10.93
2022-11-18T01:20:24.621Z,16.63
2022-11-18T01:22:52.962Z,14.43
2022-11-18T01:25:21.082Z,14.00
2022-11-18T01:27:50.824Z,14.25
2022-11-18T01:30:18.911Z,14.45
2022-11-18T01:32:47.211Z,12.05
2022-11-18T01:35:15.370Z,13.23
2022-11-18T01:37:43.500Z,15.68
2022-11-18T01:40:12.506Z,10.77
2022-11-18T01:42:40.974Z,14.57
2022-11-18T01:45:22.764Z,12.23
2022-11-18T01:47:55.324Z,17.00
2022-11-18T01:50:25.098Z,15.82
2022-11-18T01:52:55.590Z,15.55
2022-11-18T01:55:27.900Z,12.43
2022-11-18T01:58:01.968Z,17.48
2022-11-18T02:00:31.475Z,16.17
2022-11-18T02:03:01.377Z,14.85
2022-11-18T02:05:30.408Z,17.02
2022-11-18T02:08:00.984Z,17.95
2022-11-18T02:10:29.065Z,12.82
2022-11-18T02:12:58.930Z,13.98
2022-11-18T02:15:39.062Z,15.60
2022-11-18T02:18:16.663Z,15.77
2022-11-18T02:20:47.669Z,16.23
2022-11-18T02:23:47.118Z,16.23
2022-11-18T02:26:48.023Z,14.05
2022-11-18T02:29:20.084Z,14.77
2022-11-18T02:31:56.461Z,14.35
2022-11-18T02:34:36.402Z,17.73
2022-11-18T02:37:08.793Z,20.30
2022-11-18T02:39:40.475Z,10.90
2022-11-18T02:42:13.120Z,19.02
2022-11-18T02:44:46.660Z,18.08
2022-11-18T02:47:17.232Z,16.58
2022-11-18T02:49:50.042Z,23.40
2022-11-18T02:52:20.309Z,20.90
2022-11-18T02:54:50.724Z,20.30
2022-11-18T02:57:20.470Z,21.25
2022-11-18T02:59:50.379Z,25.60
2022-11-18T03:02:20.061Z,19.20
2022-11-18T03:04:50.518Z,22.17
2022-11-18T03:07:22.669Z,22.77
2022-11-18T03:09:53.649Z,19.17
2022-11-18T03:12:29.072Z,24.70
2022-11-18T03:15:08.292Z,12.07
2022-11-18T03:17:46.983Z,21.17
2022-11-18T03:20:22.727Z,23.38
2022-11-18T03:22:57.517Z,26.88
2022-11-18T03:25:33.085Z,24.20
2022-11-18T03:28:08.915Z,13.70
2022-11-18T03:30:42.174Z,18.60
2022-11-18T03:33:13.144Z,28.10
2022-11-18T03:35:46.620Z,26.02
2022-11-18T03:38:19.113Z,25.38
2022-11-18T03:40:51.613Z,18.35
2022-11-18T03:43:23.369Z,25.33
2022-11-18T03:45:58.182Z,27.63
2022-11-18T03:48:30.650Z,25.77
2022-11-18T03:51:02.915Z,25.15
2022-11-18T03:53:35.229Z,23.98
2022-11-18T03:56:12.768Z,25.33
2022-11-18T03:58:52.987Z,29.15
2022-11-18T04:01:27.817Z,23.33
2022-11-18T04:03:56.270Z,21.60
2022-11-18T04:06:31.809Z,27.65
2022-11-18T04:09:04.928Z,26.50
2022-11-18T04:12:10.262Z,24.15
2022-11-18T04:14:41.117Z,22.58
2022-11-18T04:17:13.439Z,25.75
2022-11-18T04:19:42.285Z,22.02
2022-11-18T04:22:11.216Z,24.38
2022-11-18T04:24:39.724Z,23.98
2022-11-18T04:27:08.582Z,25.67
2022-11-18T04:29:37.020Z,22.92
2022-11-18T04:32:06.177Z,22.08
2022-11-18T04:34:35.964Z,21.70
2022-11-18T04:37:04.028Z,23.15
2022-11-18T04:39:32.038Z,24.60
2022-11-18T04:42:00.164Z,23.38
2022-11-18T04:44:29.724Z,17.75
2022-11-18T04:46:59.316Z,22.20
2022-11-18T04:49:28.045Z,23.35
2022-11-18T04:51:58.299Z,22.48
2022-11-18T04:54:27.631Z,22.88
2022-11-18T04:56:56.627Z,25.30
2022-11-18T04:59:26.565Z,24.67
2022-11-18T05:01:54.906Z,23.02
2022-11-18T05:04:25.583Z,25.05
2022-11-18T05:06:54.744Z,22.52
2022-11-18T05:09:30.280Z,22.23
2022-11-18T05:12:17.004Z,22.10
2022-11-18T05:14:49.675Z,25.45
2022-11-18T05:17:19.165Z,23.67
2022-11-18T05:19:47.163Z,15.30
2022-11-18T05:22:16.168Z,25.80
2022-11-18T05:24:45.509Z,16.50
2022-11-18T05:27:14.186Z,20.95
2022-11-18T05:29:42.714Z,24.45
2022-11-18T05:32:11.018Z,22.25
2022-11-18T05:34:39.354Z,22.02
2022-11-18T05:37:07.499Z,22.17
2022-11-18T05:39:35.664Z,23.65
2022-11-18T05:42:22.724Z,24.10
2022-11-18T05:44:56.377Z,22.95
2022-11-18T05:47:26.064Z,22.98
2022-11-18T05:49:54.051Z,21.38
2022-11-18T05:52:22.053Z,19.27
2022-11-18T05:54:51.944Z,25.58
2022-11-18T05:57:21.281Z,23.48
2022-11-18T05:59:49.304Z,24.90
2022-11-18T06:02:21.315Z,22.20
2022-11-18T06:04:52.091Z,24.67
2022-11-18T06:07:22.978Z,28.55
2022-11-18T06:09:54.389Z,22.75
2022-11-18T06:12:27.881Z,19.60
2022-11-18T06:15:02.181Z,30.48
2022-11-18T06:17:33.136Z,30.75
2022-11-18T06:20:01.488Z,27.08
2022-11-18T06:22:29.813Z,23.08
2022-11-18T06:24:57.866Z,26.50
2022-11-18T06:27:27.343Z,29.60
2022-11-18T06:29:55.333Z,30.58
2022-11-18T06:32:23.318Z,26.80
2022-11-18T06:34:51.337Z,25.52
2022-11-18T06:37:21.662Z,34.20
2022-11-18T06:39:49.965Z,30.83
2022-11-18T06:42:31.857Z,27.77
2022-11-18T06:45:02.184Z,27.60
2022-11-18T06:47:29.622Z,26.25
2022-11-18T06:49:58.002Z,29.63
2022-11-18T06:52:26.001Z,26.73
2022-11-18T06:54:54.019Z,30.17
2022-11-18T06:57:22.130Z,27.58
2022-11-18T06:59:50.193Z,26.00
2022-11-18T07:02:19.602Z,23.13
2022-11-18T07:04:47.606Z,22.00
2022-11-18T07:07:16.134Z,24.60
2022-11-18T07:09:44.974Z,27.20
2022-11-18T07:12:12.970Z,30.48
2022-11-18T07:14:40.967Z,24.77
2022-11-18T07:17:08.961Z,25.83
2022-11-18T07:19:38.429Z,26.92
2022-11-18T07:22:08.080Z,27.23
2022-11-18T07:24:36.196Z,26.88
2022-11-18T07:27:04.604Z,25.45
2022-11-18T07:29:32.604Z,30.10
2022-11-18T07:32:00.901Z,21.38
2022-11-18T07:34:28.907Z,27.65
2022-11-18T07:36:58.307Z,30.13
2022-11-18T07:39:26.332Z,27.73
2022-11-18T07:41:54.339Z,28.00
2022-11-18T07:44:22.692Z,24.52
2022-11-18T07:46:50.768Z,30.23
2022-11-18T07:49:19.189Z,28.05
2022-11-18T07:51:47.502Z,25.63
2022-11-18T07:54:17.797Z,15.30
2022-11-18T07:56:46.141Z,32.83
2022-11-18T07:59:21.712Z,30.77
2022-11-18T08:01:49.927Z,32.13
2022-11-18T08:04:18.353Z,32.58
2022-11-18T08:06:46.652Z,21.35
2022-11-18T08:09:16.255Z,34.90
2022-11-18T08:11:44.420Z,26.65
2022-11-18T08:14:12.390Z,32.55
2022-11-18T08:16:40.595Z,32.95
2022-11-18T08:19:08.625Z,29.02
2022-11-18T08:21:36.680Z,28.80
2022-11-18T08:24:05.014Z,23.10
2022-11-18T08:26:34.663Z,31.70
2022-11-18T08:29:02.798Z,26.27
2022-11-18T08:31:31.655Z,30.58
2022-11-18T08:34:01.654Z,21.75
2022-11-18T08:36:31.833Z,28.70
2022-11-18T08:39:01.048Z,29.15
2022-11-18T08:41:32.669Z,25.65
2022-11-18T08:44:02.533Z,26.60
2022-11-18T08:46:30.973Z,28.35
2022-11-18T08:48:59.657Z,28.15
2022-11-18T08:51:28.569Z,26.83
2022-11-18T08:53:56.653Z,26.35
2022-11-18T08:56:25.997Z,27.83
2022-11-18T08:58:54.566Z,25.17
2022-11-18T09:01:24.366Z,31.67
2022-11-18T09:03:53.058Z,32.22
2022-11-18T09:06:24.817Z,24.85
2022-11-18T09:08:53.435Z,29.67
2022-11-18T09:11:22.867Z,29.10
2022-11-18T09:15:11.254Z,27.95
2022-11-18T09:16:44.215Z,20.70
2022-11-18T09:19:40.081Z,27.48
2022-11-18T09:22:00.307Z,29.48
2022-11-18T09:24:28.428Z,28.92
2022-11-18T09:26:56.867Z,29.20
2022-11-18T09:29:26.554Z,25.42
2022-11-18T09:31:56.186Z,32.30
2022-11-18T09:34:24.525Z,27.83
2022-11-18T09:36:56.203Z,31.70
2022-11-18T09:39:24.996Z,32.47
2022-11-18T09:42:01.793Z,27.92
2022-11-18T09:44:51.396Z,21.25
2022-11-18T09:47:28.344Z,24.05
2022-11-18T09:49:59.431Z,24.35
2022-11-18T09:52:36.024Z,27.05
2022-11-18T09:55:09.600Z,32.43
2022-11-18T09:57:40.502Z,27.95
2022-11-18T10:00:16.154Z,20.52
2022-11-18T10:02:54.296Z,30.00
2022-11-18T10:05:24.337Z,26.65
2022-11-18T10:08:06.003Z,22.38
2022-11-18T10:10:43.813Z,27.75
2022-11-18T10:13:25.189Z,28.00
2022-11-18T10:16:00.293Z,18.38
2022-11-18T10:18:59.280Z,29.95
2022-11-18T10:21:37.691Z,30.63
2022-11-18T10:24:13.429Z,24.98
2022-11-18T10:26:42.536Z,31.50
2022-11-18T10:29:11.132Z,27.98
2022-11-18T10:31:40.836Z,20.27
2022-11-18T10:34:14.400Z,24.02
2022-11-18T10:36:42.413Z,22.00
2022-11-18T10:39:15.344Z,27.75
2022-11-18T10:41:47.321Z,23.40
2022-11-18T10:44:39.654Z,24.77
2022-11-18T10:47:28.889Z,26.17
2022-11-18T10:50:00.232Z,20.80
2022-11-18T10:52:28.959Z,23.05
2022-11-18T10:55:23.305Z,24.88
2022-11-18T10:57:55.146Z,13.57
2022-11-18T11:00:38.988Z,21.00
2022-11-18T11:03:34.334Z,26.45
2022-11-18T11:06:23.881Z,20.47
2022-11-18T11:08:53.602Z,14.63
2022-11-18T11:11:26.650Z,14.40
2022-11-18T11:13:59.744Z,15.05
2022-11-18T11:16:30.595Z,14.40
2022-11-18T11:19:03.927Z,23.80
2022-11-18T11:21:33.600Z,22.85
2022-11-18T11:24:01.650Z,23.52
2022-11-18T11:29:46.900Z,24.27
2022-11-18T11:32:25.729Z,18.43
2022-11-18T11:35:03.553Z,20.87
2022-11-18T11:37:42.218Z,25.35
2022-11-18T11:40:25.844Z,21.67
2022-11-18T11:43:09.417Z,20.60
2022-11-18T11:45:46.296Z,27.53
2022-11-18T11:48:32.146Z,19.40
2022-11-18T11:51:04.975Z,23.87
2022-11-18T11:53:54.974Z,24.90
2022-11-18T11:56:33.188Z,22.55
2022-11-18T11:59:17.684Z,24.33
2022-11-18T12:01:58.053Z,25.02
2022-11-18T12:04:38.694Z,21.58
2022-11-18T12:07:09.272Z,23.80
2022-11-18T12:10:02.351Z,27.20
2022-11-18T12:12:38.505Z,29.50
2022-11-18T12:15:19.420Z,26.40
2022-11-18T12:17:54.750Z,24.97
2022-11-18T12:20:44.988Z,25.03
2022-11-18T12:23:16.110Z,28.50
2022-11-18T12:26:11.111Z,27.20
2022-11-18T12:28:42.297Z,25.03
2022-11-18T12:31:36.415Z,29.23
2022-11-18T12:34:21.769Z,26.77
2022-11-18T12:36:49.912Z,27.20
2022-11-18T12:39:57.358Z,27.05
2022-11-18T12:42:59.403Z,28.03
2022-11-18T12:45:55.473Z,24.83
2022-11-18T12:48:47.266Z,30.02
2022-11-18T12:51:45.146Z,26.80
2022-11-18T12:54:29.549Z,19.35
2022-11-18T12:57:00.641Z,27.33
2022-11-18T12:59:32.471Z,27.80
2022-11-18T13:02:19.198Z,29.15
2022-11-18T13:04:52.128Z,13.95
2022-11-18T13:07:38.966Z,25.30
2022-11-18T13:10:20.320Z,27.35
2022-11-18T13:12:49.652Z,19.80
2022-11-18T13:15:37.496Z,20.03
2022-11-18T13:18:14.538Z,7.22
2022-11-18T13:20:44.093Z,20.43
2022-11-18T13:23:47.437Z,25.57
2022-11-18T13:26:21.369Z,23.80
2022-11-18T13:29:16.016Z,28.57
2022-11-18T13:31:56.354Z,26.05
2022-11-18T13:34:26.939Z,17.20
2022-11-18T13:36:57.283Z,18.38
2022-11-18T13:39:27.369Z,15.30
2022-11-18T13:42:03.817Z,18.93
2022-11-18T13:44:34.592Z,23.05
2022-11-18T13:47:09.723Z,19.80
2022-11-18T13:49:51.086Z,15.93
2022-11-18T13:52:25.049Z,18.67
2022-11-18T13:54:55.187Z,21.63
2022-11-18T13:57:26.401Z,22.60
2022-11-18T13:59:55.574Z,17.47
2022-11-18T14:02:25.624Z,14.90
2022-11-18T14:04:57.074Z,19.67
2022-11-18T14:07:31.863Z,19.50
2022-11-18T14:10:02.509Z,18.75
2022-11-18T14:12:33.018Z,14.73
2022-11-18T14:15:15.165Z,16.93
2022-11-18T14:17:54.848Z,14.53
2022-11-18T14:20:23.718Z,17.80
2022-11-18T14:22:55.680Z,10.23
2022-11-18T14:25:28.273Z,17.43
2022-11-18T14:27:58.133Z,13.97
2022-11-18T14:30:36.946Z,15.20
2022-11-18T14:33:22.744Z,16.77
2022-11-18T14:35:53.441Z,16.23
2022-11-18T14:41:14.530Z,16.67
2022-11-18T14:43:46.259Z,15.03
2022-11-18T14:46:17.842Z,14.50
2022-11-18T14:48:48.236Z,14.53
2022-11-18T14:51:17.342Z,15.67
2022-11-18T14:53:45.918Z,15.52
2022-11-18T14:56:18.774Z,12.97
2022-11-18T14:58:47.174Z,18.37
2022-11-18T15:01:15.335Z,15.07
2022-11-18T15:03:43.502Z,14.63
2022-11-18T15:06:15.928Z,15.68
2022-11-18T15:08:44.644Z,10.57
2022-11-18T15:11:12.998Z,21.07
2022-11-18T15:13:41.735Z,14.60
2022-11-18T15:16:15.784Z,16.10
2022-11-18T15:18:44.781Z,13.80
2022-11-18T15:21:14.244Z,14.70
2022-11-18T15:23:42.584Z,16.57
2022-11-18T15:26:21.627Z,16.47
2022-11-18T15:28:50.568Z,15.82
2022-11-18T15:31:19.048Z,14.63
2022-11-18T15:33:49.996Z,15.07
2022-11-18T15:36:20.635Z,15.87
2022-11-18T15:38:50.325Z,12.27
2022-11-18T15:41:21.020Z,15.17
2022-11-18T15:43:49.967Z,14.77
2022-11-18T15:46:19.510Z,15.20
2022-11-18T15:48:48.382Z,13.27
2022-11-18T15:51:16.484Z,15.53
2022-11-18T15:53:46.650Z,14.40
2022-11-18T15:56:27.588Z,9.80
2022-11-18T15:58:57.163Z,12.98
2022-11-18T16:01:25.874Z,12.43
2022-11-18T16:03:54.241Z,13.10
2022-11-18T16:06:22.941Z,15.10
2022-11-18T16:08:58.859Z,15.63
2022-11-18T16:11:46.698Z,12.97
2022-11-18T16:14:17.019Z,13.23
2022-11-18T16:16:47.031Z,12.67
2022-11-18T16:19:17.276Z,11.10
2022-11-18T16:21:48.722Z,13.50
2022-11-18T16:24:21.230Z,16.10
2022-11-18T16:26:50.361Z,12.63
2022-11-18T16:29:19.277Z,13.43
2022-11-18T16:31:52.395Z,14.90
2022-11-18T16:34:22.323Z,12.27
2022-11-18T16:36:52.322Z,11.90
2022-11-18T16:39:24.064Z,15.13
2022-11-18T16:41:53.409Z,9.83
2022-11-18T16:44:21.487Z,12.10
2022-11-18T16:46:51.388Z,11.70
2022-11-18T16:49:21.854Z,11.07
2022-11-18T16:51:51.814Z,13.73
2022-11-18T16:54:23.264Z,10.83
2022-11-18T16:56:52.162Z,12.93
2022-11-18T16:59:22.398Z,10.27
2022-11-18T17:01:51.487Z,10.67
2022-11-18T17:04:20.401Z,13.10
2022-11-18T17:06:49.229Z,10.97
2022-11-18T17:09:19.243Z,10.83
2022-11-18T17:11:49.673Z,11.40
2022-11-18T17:14:19.492Z,10.27
2022-11-18T17:16:48.174Z,12.17
2022-11-18T17:19:18.727Z,9.00
2022-11-18T17:21:47.609Z,10.63
2022-11-18T17:24:17.704Z,10.33
2022-11-18T17:26:46.406Z,11.27
2022-11-18T17:29:16.630Z,13.03
2022-11-18T17:31:44.975Z,11.67
2022-11-18T17:34:13.902Z,12.63
2022-11-18T17:36:42.907Z,10.33
2022-11-18T17:39:13.271Z,11.73
2022-11-18T17:41:59.315Z,10.93
2022-11-18T17:44:29.081Z,13.97
2022-11-18T17:46:57.245Z,10.90
2022-11-18T17:49:25.429Z,14.30
2022-11-18T17:51:53.703Z,12.60
2022-11-18T17:54:22.449Z,11.67
2022-11-18T17:56:52.579Z,13.83
2022-11-18T17:59:21.549Z,14.37
2022-11-18T18:01:57.315Z,12.87
2022-11-18T18:04:27.246Z,9.57
2022-11-18T18:06:55.628Z,10.03
2022-11-18T18:09:31.092Z,11.17
2022-11-18T18:12:00.702Z,10.87
2022-11-18T18:14:27.901Z,9.00
2022-11-18T18:16:57.335Z,9.50
2022-11-18T18:19:26.420Z,11.93
2022-11-18T18:21:55.068Z,9.93
2022-11-18T18:24:24.104Z,11.50
2022-11-18T18:26:52.214Z,11.90
2022-11-18T18:29:20.649Z,10.07
2022-11-18T18:31:48.737Z,11.73
2022-11-18T18:34:18.955Z,12.33
2022-11-18T18:36:47.393Z,11.03
2022-11-18T18:39:15.456Z,10.00
2022-11-18T18:41:43.690Z,10.63
2022-11-18T18:44:18.064Z,12.73
2022-11-18T18:46:45.991Z,14.93
2022-11-18T18:49:15.711Z,11.20
2022-11-18T18:51:49.043Z,14.00
2022-11-18T18:54:20.236Z,14.87
2022-11-18T18:56:50.730Z,11.17
2022-11-18T18:59:18.741Z,11.73
2022-11-18T19:01:46.880Z,11.30
2022-11-18T19:04:16.460Z,12.60
2022-11-18T19:06:55.020Z,10.67
2022-11-18T19:09:27.065Z,9.40
2022-11-18T19:12:13.303Z,8.93
2022-11-18T19:14:41.632Z,10.53
2022-11-18T19:17:11.748Z,8.90
2022-11-18T19:20:00.017Z,9.73
2022-11-18T19:22:31.468Z,11.73
2022-11-18T19:25:00.527Z,10.60
2022-11-18T19:27:29.077Z,11.43
2022-11-18T19:29:57.173Z,11.97
2022-11-18T19:32:25.216Z,12.53
2022-11-18T19:34:53.311Z,8.33
2022-11-18T19:37:21.317Z,10.87
2022-11-18T19:39:51.049Z,11.97
2022-11-18T19:42:19.144Z,9.17
2022-11-18T19:44:47.137Z,11.27
2022-11-18T19:47:15.212Z,8.83
2022-11-18T19:49:43.244Z,8.07
2022-11-18T19:52:11.314Z,10.67
2022-11-18T19:54:40.708Z,9.20
2022-11-18T20:01:31.093Z,8.77
2022-11-18T20:04:01.877Z,10.43
2022-11-18T20:06:30.927Z,10.60
2022-11-18T20:08:59.283Z,8.77
2022-11-18T20:11:28.185Z,8.13
2022-11-18T20:13:57.969Z,16.03
2022-11-18T20:16:26.704Z,10.47
2022-11-18T20:18:55.592Z,9.67
2022-11-18T20:21:24.932Z,10.47
2022-11-18T20:23:56.106Z,9.63
2022-11-18T20:26:27.615Z,9.50
2022-11-18T20:28:57.879Z,8.47
2022-11-18T20:31:28.462Z,9.87
2022-11-18T20:33:57.741Z,9.53
2022-11-18T20:36:29.682Z,8.47
2022-11-18T20:38:59.457Z,10.30
2022-11-18T20:41:30.328Z,8.33
2022-11-18T20:44:00.583Z,8.70
2022-11-18T20:46:29.221Z,9.73
2022-11-18T20:48:57.517Z,9.77
2022-11-18T20:51:27.451Z,10.93
2022-11-18T20:53:56.981Z,9.70
2022-11-18T20:56:26.805Z,9.53
2022-11-18T20:58:56.878Z,11.07
2022-11-18T21:01:28.189Z,11.63
2022-11-18T21:03:58.225Z,9.83
2022-11-18T21:06:28.698Z,8.77
2022-11-18T21:08:57.927Z,10.50
2022-11-18T21:11:27.537Z,10.13
2022-11-18T21:14:16.018Z,7.83
2022-11-18T21:16:48.512Z,10.73
2022-11-18T21:19:17.074Z,11.13
2022-11-18T21:21:49.111Z,8.30
2022-11-18T21:24:18.903Z,8.37
2022-11-18T21:26:48.669Z,12.73
2022-11-18T21:29:18.159Z,8.43
2022-11-18T21:31:48.398Z,8.07
2022-11-18T21:34:17.686Z,10.17
2022-11-18T21:36:52.959Z,7.50
2022-11-18T21:39:22.887Z,8.47
2022-11-18T21:41:55.621Z,9.27
2022-11-18T21:44:25.083Z,10.17
2022-11-18T21:46:54.679Z,8.43
2022-11-18T21:49:23.630Z,9.10
2022-11-18T21:51:51.896Z,9.67
2022-11-18T21:54:19.974Z,11.00
2022-11-18T21:56:48.066Z,8.27
2022-11-18T21:59:17.240Z,8.50
2022-11-18T22:01:45.576Z,10.70
2022-11-18T22:04:35.250Z,8.70
2022-11-18T22:07:03.437Z,8.20
2022-11-18T22:09:36.410Z,7.23
2022-11-18T22:12:06.403Z,9.20
2022-11-18T22:14:34.899Z,11.20
2022-11-18T22:17:03.169Z,11.90
2022-11-18T22:19:32.915Z,11.70
2022-11-18T22:22:01.590Z,15.67
2022-11-18T22:24:29.693Z,10.87
2022-11-18T22:26:58.834Z,10.00
2022-11-18T22:29:27.175Z,10.67
2022-11-18T22:31:55.421Z,8.63
2022-11-18T22:34:23.425Z,9.27
2022-11-18T22:36:53.733Z,10.30
2022-11-18T22:39:22.347Z,12.07
2022-11-18T22:42:08.104Z,12.90
2022-11-18T22:44:36.861Z,8.70
2022-11-18T22:47:05.069Z,15.10
2022-11-18T22:49:33.520Z,10.30
2022-11-18T22:52:03.348Z,13.97
2022-11-18T22:54:38.884Z,14.83
2022-11-18T22:57:08.187Z,13.83
2022-11-18T22:59:36.168Z,12.40
2022-11-18T23:02:04.333Z,17.33
2022-11-18T23:04:32.409Z,14.23
2022-11-18T23:07:00.913Z,10.33
2022-11-18T23:09:30.396Z,10.67
2022-11-18T23:12:16.311Z,10.50
2022-11-18T23:14:44.353Z,11.70
2022-11-18T23:17:12.401Z,12.27
2022-11-18T23:19:43.976Z,7.07
2022-11-18T23:22:12.641Z,14.63
2022-11-18T23:24:42.471Z,7.40
2022-11-18T23:27:10.543Z,11.23
2022-11-18T23:29:39.790Z,9.87
2022-11-18T23:32:07.812Z,9.57
2022-11-18T23:34:36.126Z,10.90
2022-11-18T23:37:04.553Z,8.80
2022-11-18T23:39:32.567Z,8.37
2022-11-18T23:42:02.304Z,9.37
2022-11-18T23:44:52.623Z,9.90
2022-11-18T23:47:20.958Z,8.97
2022-11-18T23:49:49.020Z,11.60
2022-11-18T23:52:17.544Z,10.90
2022-11-18T23:54:45.550Z,9.33
2022-11-18T23:57:15.201Z,9.93
2022-11-18T23:59:43.212Z,7.70
